EW1425 Weather Reports


time (UTC)temp
F
wind
direction
speed
knots
gust
knots
rain 1hr
in
rain 24hr
in
rain mn
in
humidity
%
barometer
mb
20211017161524 62 304 0.9 6.1 0.00 0.12 0.09 63 1004.9
20211017160026 63 242 0.9 4.3 0.00 0.12 0.09 65 1005.2
20211017154527 62 297 0.9 5.2 0.00 0.12 0.09 64 1005.2
20211017153022 62 23 0.9 5.2 0.00 0.12 0.09 70 1005.2
20211017151536 62 20 0.9 8.7 0.00 0.12 0.09 70 1005.3
20211017150026 62 40 0.0 5.2 0.00 0.12 0.09 71 1005.4
20211017144557 61 321 0.9 3.5 0.00 0.12 0.09 73 1005.3
20211017143039 60 130 0.9 7.0 0.00 0.12 0.09 75 1005.4
20211017141523 60 30 0.9 4.3 0.00 0.12 0.09 76 1005.4
20211017140017 59 89 0.9 7.0 0.00 0.12 0.09 78 1005.5
20211017134512 59 15 1.7 5.2 0.00 0.12 0.09 78 1005.5
20211017133011 58 282 0.9 7.0 0.00 0.12 0.09 83 1005.5
20211017131515 58 253 0.0 4.3 0.00 0.12 0.09 83 1005.5
20211017130008 57 283 0.9 4.3 0.00 0.12 0.09 85 1005.5
20211017124506 57 316 0.9 3.5 0.00 0.12 0.09 86 1005.4
20211017123003 56 300 0.9 3.5 0.00 0.12 0.09 88 1005.3
20211017121503 56 296 0.9 1.7 0.00 0.12 0.09 90 1005.1
20211017120146 56 240 0.0 2.6 0.00 0.12 0.09 91 1005.0
20211017114625 55 316 0.0 2.6 0.00 0.12 0.09 92 1004.8
20211017113153 55 293 0.0 4.3 0.00 0.12 0.09 92 1004.7
20211017111602 56 306 0.9 3.5 0.00 0.12 0.09 93 1004.4
20211017110125 56 296 0.0 2.6 0.00 0.12 0.09 94 1004.3
20211017104559 56 281 0.0 5.2 0.00 0.12 0.09 94 1004.5
20211017103105 57 281 0.0 1.7 0.00 0.12 0.09 95 1004.0
20211017101639 57 315 0.0 1.7 0.01 0.12 0.09 95 1004.2
20211017100104 57 303 0.0 2.6 0.02 0.12 0.09 94 1004.3
20211017094623 57 294 0.0 2.6 0.02 0.12 0.09 95 1004.1
20211017093119 57 322 0.9 3.5 0.03 0.12 0.09 95 1004.4
20211017091559 57 295 0.0 1.7 0.03 0.11 0.08 95 1002.3
20211017090134 58 273 0.0 2.6 0.04 0.10 0.07 95 1004.0
20211017084629 58 289 0.9 3.5 0.04 0.10 0.07 95 1004.6
20211017083209 58 278 0.0 1.7 0.03 0.09 0.06 95 1003.7
20211017081554 59 282 0.0 5.2 0.03 0.08 0.05 95 1003.5
20211017080105 59 316 0.0 2.6 0.01 0.06 0.03 95 1004.3
20211017074553 59 278 0.0 0.9 0.01 0.06 0.03 95 1002.5
20211017073041 59 319 0.0 1.7 0.01 0.06 0.03 94 1002.7
20211017071535 60 284 0.0 2.6 0.00 0.05 0.02 94 1003.2
20211017070054 60 280 0.0 0.9 0.00 0.05 0.02 94 1003.2
20211017064558 60 252 0.0 1.7 0.00 0.05 0.02 94 1003.3
20211017063038 60 293 0.0 3.5 0.00 0.05 0.02 93 1002.8
20211017061529 61 322 0.9 2.6 0.00 0.05 0.02 93 1002.8
20211017060023 61 244 0.9 3.5 0.02 0.05 0.02 93 1003.3
20211017054522 61 312 0.9 4.3 0.02 0.05 0.02 92 1003.5
20211017053014 61 296 0.9 4.3 0.02 0.05 0.02 93 1003.4
20211017051540 62 27 1.7 6.1 0.02 0.05 0.02 93 1003.2
20211017050004 64 353 1.7 5.2 0.00 0.03 0.00 89 1003.5
20211017044821 68 306 3.5 9.6 0.00 0.03 0.00 87 1002.6
20211017043157 70 221 0.0 3.5 0.00 0.03 0.00 95 1002.6
20211017041711 70 269 0.0 2.6 0.00 0.03 0.00 95 1002.7
20211017040122 70 238 0.9 3.5 0.00 0.03 0.00 95 1003.0
20211017034629 69 231 0.9 7.0 0.00 0.03 0.03 95 1003.3
20211017033109 69 186 0.9 7.0 0.03 0.03 0.03 95 1003.6
20211017031707 69 175 1.7 3.5 0.03 0.03 0.03 95 1003.7
20211017030125 69 304 0.0 2.6 0.03 0.03 0.03 96 1003.8
20211017024626 69 259 0.0 6.1 0.03 0.03 0.03 95 1004.1
20211017023147 70 240 0.9 7.8 0.00 0.00 0.00 93 1003.9
20211017021620 70 243 1.7 7.8 0.00 0.00 0.00 93 1004.2
20211017020056 69 266 1.7 6.1 0.00 0.00 0.00 94 1004.2
20211017014703 70 240 2.6 7.0 0.00 0.00 0.00 92 1004.5
20211017013043 70 226 2.6 6.1 0.00 0.00 0.00 92 1004.6
20211017011600 70 236 1.7 8.7 0.00 0.00 0.00 92 1004.9
20211017010129 70 228 1.7 7.8 0.00 0.00 0.00 92 1004.9
20211017004603 70 238 1.7 6.1 0.00 0.00 0.00 93 1005.1
20211017003110 70 252 1.7 5.2 0.00 0.00 0.00 93 1005.1
20211017001551 70 252 2.6 7.8 0.00 0.00 0.00 93 1005.2
20211017000047 70 271 1.7 7.0 0.00 0.00 0.00 93 1005.3
20211016234709 70 225 1.7 7.8 0.00 0.00 0.00 93 1005.5
20211016233045 69 235 1.7 6.1 0.00 0.00 0.00 93 1005.6
20211016231532 69 234 2.6 7.8 0.00 0.00 0.00 94 1005.6
20211016230101 69 257 3.5 8.7 0.00 0.00 0.00 94 1005.6
20211016224536 69 256 1.7 5.2 0.00 0.00 0.00 95 1005.6
20211016223041 69 233 1.7 7.0 0.00 0.00 0.00 94 1005.7
20211016221550 69 251 1.7 5.2 0.00 0.00 0.00 94 1005.7
20211016220033 69 233 1.7 6.1 0.00 0.00 0.00 94 1005.7
20211016214606 69 115 1.7 7.0 0.00 0.00 0.00 94 1005.9
20211016213023 70 232 1.7 6.1 0.00 0.00 0.00 93 1005.9
20211016211548 70 203 1.7 7.0 0.00 0.00 0.00 93 1006.0
20211016210057 70 149 1.7 7.0 0.00 0.00 0.00 93 1006.0
20211016204524 70 243 1.7 6.1 0.00 0.00 0.00 93 1006.2
20211016203036 70 132 1.7 8.7 0.00 0.00 0.00 92 1006.4
20211016201518 70 224 1.7 7.8 0.00 0.00 0.00 92 1006.6
20211016200029 70 226 2.6 7.0 0.00 0.00 0.00 92 1006.7
20211016194510 70 249 1.7 6.1 0.00 0.00 0.00 92 1006.8
20211016193006 70 250 2.6 7.8 0.00 0.00 0.00 91 1007.0
20211016191506 70 247 1.7 7.0 0.00 0.00 0.00 90 1007.2
20211016190015 70 129 1.7 7.0 0.00 0.00 0.00 90 1007.3
20211016184503 70 240 1.7 7.0 0.00 0.00 0.00 90 1007.2
20211016183132 70 214 2.6 7.8 0.00 0.00 0.00 89 1007.3
20211016181643 70 232 0.9 6.1 0.00 0.00 0.00 89 1007.6
20211016180141 71 254 1.7 8.7 0.00 0.00 0.00 88 1007.8
20211016174655 71 231 0.9 7.8 0.00 0.00 0.00 87 1008.0
20211016173145 72 232 1.7 4.3 0.00 0.00 0.00 86 1008.4
20211016171609 71 250 0.9 5.2 0.00 0.00 0.00 87 1008.6
20211016170101 72 247 0.9 7.8 0.00 0.00 0.00 86 1008.5
20211016164641 72 103 0.0 5.2 0.00 0.00 0.00 87 1008.9
20211016163126 71 217 0.9 4.3 0.00 0.00 0.00 87 1009.2
20211016161614 72 261 0.9 4.3 0.00 0.00 0.00 87 1009.2